Time;durP1;ratioP1;P1;durP2;ratioP2;P2;SDS_P1;SDS_P2;PMS_P1;PMS_P2;Temp;Humidity;BMP_temperature;BMP_pressure;BME280_temperature;BME280_humidity;BME280_pressure;Samples;Min_cycle;Max_cycle;Signal;HPM_P1;HPM_P2
2023/04/13 00:02:15;;;;;;;1.65;1.08;;;;;;;-147.53;100.00;57128.34;10551770;28;20432;-81
2023/04/13 00:07:17;;;;;;;1.10;0.75;;;;;;;-147.53;100.00;57128.34;10562377;28;20039;-82
2023/04/13 00:12:20;;;;;;;1.25;0.95;;;;;;;-147.53;100.00;57128.34;10563464;28;20043;-82
2023/04/13 00:17:23;;;;;;;3.88;1.83;;;;;;;-147.53;100.00;57128.34;10547545;28;20131;-82
2023/04/13 00:22:27;;;;;;;1.10;0.80;;;;;;;-147.53;100.00;57128.34;10537946;28;20043;-82
2023/04/13 00:27:29;;;;;;;1.10;0.98;;;;;;;-147.53;100.00;57128.34;10549983;28;20110;-82
2023/04/13 00:32:33;;;;;;;1.08;0.95;;;;;;;-147.53;100.00;57128.34;10557218;28;20077;-82
2023/04/13 00:37:34;;;;;;;1.38;0.93;;;;;;;-147.53;100.00;57128.34;10532608;28;20051;-82
2023/04/13 00:42:36;;;;;;;0.88;0.75;;;;;;;-147.53;100.00;57128.34;10548012;28;20407;-83
2023/04/13 00:47:40;;;;;;;1.05;0.88;;;;;;;-147.53;100.00;57128.34;10555812;28;20044;-83
2023/04/13 00:52:43;;;;;;;2.05;0.70;;;;;;;-147.53;100.00;57128.34;10557634;28;20040;-82
2023/04/13 00:57:48;;;;;;;5.57;0.85;;;;;;;-147.53;100.00;57128.34;10523439;28;20571;-81
2023/04/13 01:02:52;;;;;;;1.65;1.00;;;;;;;-147.53;100.00;57128.34;10558857;28;20388;-82
2023/04/13 01:08:17;;;;;;;0.73;0.47;;;;;;;-147.53;100.00;57128.34;10565338;28;20048;-82
2023/04/13 01:13:22;;;;;;;0.98;0.85;;;;;;;-147.53;100.00;57128.34;10491573;28;20041;-82
2023/04/13 01:18:37;;;;;;;1.13;1.02;;;;;;;-147.53;100.00;57128.34;10502363;28;20584;-82
2023/04/13 01:23:53;;;;;;;0.55;0.52;;;;;;;-147.53;100.00;57128.34;10513374;28;20075;-82
2023/04/13 01:28:57;;;;;;;1.88;1.48;;;;;;;-147.53;100.00;57128.34;10574801;28;20048;-81
2023/04/13 01:33:58;;;;;;;2.22;1.10;;;;;;;-147.53;100.00;57128.34;10554016;28;20297;-82
2023/04/13 01:39:03;;;;;;;1.85;0.88;;;;;;;-147.53;100.00;57128.34;10562549;28;20044;-82
2023/04/13 01:44:07;;;;;;;1.33;1.10;;;;;;;-147.53;100.00;57128.34;10542169;28;20067;-82
2023/04/13 01:49:09;;;;;;;1.15;0.95;;;;;;;-147.53;100.00;57128.34;10525624;28;20044;-82
2023/04/13 01:54:39;;;;;;;1.83;0.63;;;;;;;-147.53;100.00;57128.34;10537606;28;20063;-82
2023/04/13 01:59:41;;;;;;;1.60;1.10;;;;;;;-147.53;100.00;57128.34;10549884;28;20042;-82
2023/04/13 02:04:47;;;;;;;2.08;0.93;;;;;;;-147.53;100.00;57128.34;10546590;28;20517;-82
2023/04/13 02:09:49;;;;;;;2.90;1.65;;;;;;;-147.53;100.00;57128.34;10562461;28;20569;-82
2023/04/13 02:14:52;;;;;;;4.20;1.75;;;;;;;-147.53;100.00;57128.34;10568222;28;20065;-82
2023/04/13 02:19:55;;;;;;;0.73;0.68;;;;;;;-147.53;100.00;57128.34;10529708;28;20070;-82
2023/04/13 02:24:57;;;;;;;1.40;1.25;;;;;;;-147.53;100.00;57128.34;10516176;28;20370;-82
2023/04/13 02:29:58;;;;;;;1.00;0.93;;;;;;;-147.53;100.00;57128.34;10504275;28;20051;-82
2023/04/13 02:35:00;;;;;;;2.42;1.00;;;;;;;-147.53;100.00;57128.34;10518184;28;20040;-82
2023/04/13 02:40:04;;;;;;;1.50;0.98;;;;;;;-147.53;100.00;57128.34;10519872;28;20052;-82
2023/04/13 02:45:11;;;;;;;1.33;0.80;;;;;;;-147.53;100.00;57128.34;10503973;28;20063;-82
2023/04/13 02:50:14;;;;;;;3.03;1.95;;;;;;;-147.53;100.00;57128.34;10536134;28;20108;-82
2023/04/13 02:55:23;;;;;;;1.23;0.82;;;;;;;-147.53;100.00;57128.34;10510102;28;20082;-82
2023/04/13 03:00:35;;;;;;;0.45;0.38;;;;;;;-147.53;100.00;57128.34;10518260;28;20040;-82
2023/04/13 03:05:42;;;;;;;2.33;1.48;;;;;;;-147.53;100.00;57128.34;10499882;28;20154;-82
2023/04/13 03:10:50;;;;;;;1.95;1.58;;;;;;;-147.53;100.00;57128.34;10504821;28;20044;-82
2023/04/13 03:15:53;;;;;;;0.40;0.40;;;;;;;-147.53;100.00;57128.34;10499760;28;20075;-83
2023/04/13 03:20:55;;;;;;;2.00;0.80;;;;;;;-147.53;100.00;57128.34;10512262;28;20472;-82
2023/04/13 03:26:01;;;;;;;2.15;1.27;;;;;;;-147.53;100.00;57128.34;10513405;28;20079;-81
2023/04/13 03:31:03;;;;;;;0.88;0.55;;;;;;;-147.53;100.00;57128.34;10525919;28;20044;-81
2023/04/13 03:36:08;;;;;;;4.55;1.40;;;;;;;-147.53;100.00;57128.34;10501821;28;20111;-81
2023/04/13 03:41:11;;;;;;;1.92;1.05;;;;;;;-147.53;100.00;57128.34;10523489;28;20032;-81
2023/04/13 03:46:15;;;;;;;0.57;0.50;;;;;;;-147.53;100.00;57128.34;10506391;28;20391;-81
2023/04/13 03:51:17;;;;;;;1.00;0.85;;;;;;;-147.53;100.00;57128.34;10521001;28;20415;-81
2023/04/13 03:56:23;;;;;;;1.77;1.00;;;;;;;-147.53;100.00;57128.34;10520809;28;20300;-81
2023/04/13 04:01:26;;;;;;;1.02;0.88;;;;;;;-147.53;100.00;57128.34;10499549;28;20063;-81
2023/04/13 04:06:29;;;;;;;0.75;0.50;;;;;;;-147.53;100.00;57128.34;10539746;28;20048;-81
2023/04/13 04:11:41;;;;;;;0.95;0.68;;;;;;;-147.53;100.00;57128.34;10540790;28;20035;-81
2023/04/13 04:16:45;;;;;;;0.35;0.35;;;;;;;-147.53;100.00;57128.34;10522959;28;20062;-81
2023/04/13 04:21:51;;;;;;;0.20;0.20;;;;;;;-147.53;100.00;57128.34;10533163;28;20691;-82
2023/04/13 04:26:54;;;;;;;0.80;0.50;;;;;;;-147.53;100.00;57128.34;10539179;28;20040;-81
2023/04/13 04:31:57;;;;;;;0.17;0.17;;;;;;;-147.53;100.00;57128.34;10551413;28;20046;-81
2023/04/13 04:37:02;;;;;;;0.43;0.43;;;;;;;-147.53;100.00;57128.34;10536006;28;20132;-81
2023/04/13 04:42:11;;;;;;;1.85;0.93;;;;;;;-147.53;100.00;57128.34;10555493;28;20040;-81
2023/04/13 04:47:15;;;;;;;0.22;0.20;;;;;;;-147.53;100.00;57128.34;10553248;28;20262;-81
2023/04/13 04:52:39;;;;;;;0.40;0.40;;;;;;;-147.53;100.00;57128.34;10557932;28;20043;-81
2023/04/13 04:57:42;;;;;;;0.57;0.52;;;;;;;-147.53;100.00;57128.34;10561674;28;20127;-81
2023/04/13 05:02:47;;;;;;;0.65;0.50;;;;;;;-147.53;100.00;57128.34;10549454;28;20036;-82
2023/04/13 05:07:50;;;;;;;0.98;0.50;;;;;;;-147.53;100.00;57128.34;10550838;28;20075;-81
2023/04/13 05:12:53;;;;;;;0.52;0.43;;;;;;;-147.53;100.00;57128.34;10563801;28;20051;-81
2023/04/13 05:17:56;;;;;;;0.20;0.20;;;;;;;-147.53;100.00;57128.34;10554339;28;20265;-81
2023/04/13 05:23:02;;;;;;;1.23;0.80;;;;;;;-147.53;100.00;57128.34;10542577;28;20102;-82
2023/04/13 05:28:04;;;;;;;0.38;0.38;;;;;;;-147.53;100.00;57128.34;10549179;28;20158;-81
2023/04/13 05:33:08;;;;;;;0.32;0.30;;;;;;;-147.53;100.00;57128.34;10568866;28;20053;-82
2023/04/13 05:38:10;;;;;;;0.82;0.52;;;;;;;-147.53;100.00;57128.34;10576197;28;20040;-81
2023/04/13 05:43:14;;;;;;;0.40;0.40;;;;;;;-147.53;100.00;57128.34;10558146;28;20036;-83
2023/04/13 05:48:21;;;;;;;0.98;0.75;;;;;;;-147.53;100.00;57128.34;10516577;28;20446;-82
2023/04/13 05:53:26;;;;;;;0.63;0.50;;;;;;;-147.53;100.00;57128.34;10533897;28;20119;-81
2023/04/13 05:58:30;;;;;;;1.70;0.82;;;;;;;-147.53;100.00;57128.34;10560278;28;20048;-81
2023/04/13 06:03:51;;;;;;;1.00;0.50;;;;;;;-147.53;100.00;57128.34;10576496;28;20051;-83
2023/04/13 06:08:53;;;;;;;1.67;1.00;;;;;;;-147.53;100.00;57128.34;10560183;28;20051;-81
2023/04/13 06:13:56;;;;;;;0.52;0.50;;;;;;;-147.53;100.00;57128.34;10541942;28;20040;-81
2023/04/13 06:19:00;;;;;;;0.98;0.80;;;;;;;-147.53;100.00;57128.34;10555201;28;20058;-81
2023/04/13 06:24:02;;;;;;;1.20;0.77;;;;;;;-147.53;100.00;57128.34;10547049;28;20861;-81
2023/04/13 06:29:11;;;;;;;1.25;0.90;;;;;;;-147.53;100.00;57128.34;10561339;28;20051;-81
2023/04/13 06:34:21;;;;;;;1.33;0.90;;;;;;;-147.53;100.00;57128.34;10551323;28;20047;-82
2023/04/13 06:39:22;;;;;;;2.65;0.90;;;;;;;-147.53;100.00;57128.34;10556827;28;20081;-81
2023/04/13 06:44:31;;;;;;;8.07;1.52;;;;;;;-147.53;100.00;57128.34;10545907;28;20073;-82
2023/04/13 06:49:33;;;;;;;1.05;0.60;;;;;;;-147.53;100.00;57128.34;10552655;28;20052;-82
2023/04/13 06:54:36;;;;;;;1.63;0.63;;;;;;;-147.53;100.00;57128.34;10558395;28;20039;-81
2023/04/13 06:59:46;;;;;;;1.80;1.40;;;;;;;-147.53;100.00;57128.34;10558532;28;20055;-81
2023/04/13 07:04:48;;;;;;;2.08;0.95;;;;;;;-147.53;100.00;57128.34;10528212;28;20046;-81
2023/04/13 07:09:51;;;;;;;3.70;1.58;;;;;;;-147.53;100.00;57128.34;10546645;28;20089;-80
2023/04/13 07:14:55;;;;;;;1.88;1.08;;;;;;;-147.53;100.00;57128.34;10545237;28;20040;-80
2023/04/13 07:19:58;;;;;;;2.92;1.90;;;;;;;-147.53;100.00;57128.34;10544488;28;20059;-80
2023/04/13 07:25:00;;;;;;;2.42;1.05;;;;;;;-147.53;100.00;57128.34;10516925;28;20048;-81
2023/04/13 07:30:03;;;;;;;1.70;0.80;;;;;;;-147.53;100.00;57128.34;10525132;28;20044;-81
2023/04/13 07:35:11;;;;;;;5.97;1.60;;;;;;;-147.53;100.00;57128.34;10504114;28;20071;-81
2023/04/13 07:40:15;;;;;;;1.60;0.73;;;;;;;-147.53;100.00;57128.34;10511785;28;20044;-80
2023/04/13 07:45:21;;;;;;;1.15;0.75;;;;;;;-147.53;100.00;57128.34;10525931;28;20043;-80
2023/04/13 07:50:23;;;;;;;2.63;0.98;;;;;;;-147.53;100.00;57128.34;10523825;28;20044;-81
2023/04/13 07:55:25;;;;;;;4.53;1.77;;;;;;;-147.53;100.00;57128.34;10528098;28;20032;-81
2023/04/13 08:00:27;;;;;;;3.08;1.60;;;;;;;-147.53;100.00;57128.34;10516950;28;20083;-81
2023/04/13 08:05:35;;;;;;;1.45;1.05;;;;;;;-147.53;100.00;57128.34;10518978;28;20191;-81
2023/04/13 08:10:37;;;;;;;1.88;1.23;;;;;;;-147.53;100.00;57128.34;10508586;28;20571;-81
2023/04/13 08:15:40;;;;;;;2.95;1.35;;;;;;;-147.53;100.00;57128.34;10524013;28;20047;-80
2023/04/13 08:20:42;;;;;;;2.45;1.25;;;;;;;-147.53;100.00;57128.34;10515219;28;20048;-80
2023/04/13 08:25:46;;;;;;;2.67;1.10;;;;;;;-147.53;100.00;57128.34;10537173;28;20100;-81
2023/04/13 08:30:49;;;;;;;2.80;1.00;;;;;;;-147.53;100.00;57128.34;10520484;28;20044;-81
2023/04/13 08:35:52;;;;;;;2.47;1.25;;;;;;;-147.53;100.00;57128.34;10501847;28;20066;-81
2023/04/13 08:40:55;;;;;;;3.03;0.93;;;;;;;-147.53;100.00;57128.34;10517906;28;20052;-81
2023/04/13 08:46:06;;;;;;;0.95;0.75;;;;;;;-147.53;100.00;57128.34;10517465;28;20044;-81
2023/04/13 08:51:09;;;;;;;1.55;1.00;;;;;;;-147.53;100.00;57128.34;10511757;28;20106;-81
2023/04/13 08:56:14;;;;;;;2.17;0.60;;;;;;;-147.53;100.00;57128.34;10514659;28;20491;-81
2023/04/13 09:01:16;;;;;;;3.50;0.90;;;;;;;-147.53;100.00;57128.34;10513036;28;20044;-82
2023/04/13 09:06:26;;;;;;;1.55;1.17;;;;;;;-147.53;100.00;57128.34;10523402;28;20039;-80
2023/04/13 09:11:28;;;;;;;1.88;1.02;;;;;;;-147.53;100.00;57128.34;10540773;28;20524;-80
2023/04/13 09:16:37;;;;;;;1.15;0.63;;;;;;;-147.53;100.00;57128.34;10512869;28;20062;-79
2023/04/13 09:21:43;;;;;;;1.02;0.90;;;;;;;-147.53;100.00;57128.34;10473809;28;20143;-79
2023/04/13 09:26:47;;;;;;;1.23;0.73;;;;;;;-147.53;100.00;57128.34;10519759;28;20407;-80
2023/04/13 09:31:49;;;;;;;3.30;1.15;;;;;;;-147.53;100.00;57128.34;10514627;28;20044;-80
2023/04/13 09:36:51;;;;;;;1.20;0.88;;;;;;;-147.53;100.00;57128.34;10529354;28;20705;-79
2023/04/13 09:42:08;;;;;;;0.95;0.70;;;;;;;-147.53;100.00;57128.34;10505518;28;20437;-80
2023/04/13 09:47:11;;;;;;;1.00;0.63;;;;;;;-147.53;100.00;57128.34;10483566;28;20535;-80
2023/04/13 09:52:23;;;;;;;2.63;0.80;;;;;;;-147.53;100.00;57128.34;10519635;28;20067;-82
2023/04/13 09:57:31;;;;;;;0.70;0.60;;;;;;;-147.53;100.00;57128.34;10503373;28;20043;-83
2023/04/13 10:02:34;;;;;;;1.33;0.90;;;;;;;-147.53;100.00;57128.34;10474233;28;20532;-83
2023/04/13 10:07:37;;;;;;;1.10;0.90;;;;;;;-147.53;100.00;57128.34;10529624;28;20051;-82
2023/04/13 10:12:48;;;;;;;1.45;0.80;;;;;;;-147.53;100.00;57128.34;10559664;28;20043;-83
2023/04/13 10:18:02;;;;;;;4.40;1.23;;;;;;;-147.53;100.00;57128.34;10546453;28;20529;-82
2023/04/13 10:23:04;;;;;;;0.75;0.75;;;;;;;-147.53;100.00;57128.34;10548011;27;20085;-82
2023/04/13 10:28:06;;;;;;;2.35;1.23;;;;;;;-147.53;100.00;57128.34;10559458;27;20055;-82
2023/04/13 10:33:09;;;;;;;1.20;0.73;;;;;;;-147.53;100.00;57128.34;10555272;27;20576;-81
2023/04/13 10:38:10;;;;;;;0.57;0.50;;;;;;;-147.53;100.00;57128.34;10561020;28;20040;-82
2023/04/13 10:43:26;;;;;;;4.05;1.20;;;;;;;-147.53;100.00;57128.34;11216002;22;20052;-79
2023/04/13 10:48:28;;;;;;;1.30;0.50;;;;;;;-147.53;100.00;57128.34;10440136;28;20049;-79
2023/04/13 10:53:31;;;;;;;1.50;0.77;;;;;;;-147.53;100.00;57128.34;10402069;28;20052;-79
2023/04/13 10:58:33;;;;;;;1.48;0.77;;;;;;;-147.53;100.00;57128.34;10387981;28;20800;-79
2023/04/13 11:03:36;;;;;;;1.70;1.10;;;;;;;-147.53;100.00;57128.34;10403616;28;20045;-79
2023/04/13 11:08:38;;;;;;;6.43;1.45;;;;;;;-147.53;100.00;57128.34;10420023;28;20076;-80
2023/04/13 11:13:46;;;;;;;0.77;0.68;;;;;;;-147.53;100.00;57128.34;10418972;28;20056;-83
2023/04/13 11:18:47;;;;;;;1.52;1.00;;;;;;;-147.53;100.00;57128.34;10416027;28;20037;-80
2023/04/13 11:23:52;;;;;;;0.47;0.47;;;;;;;-147.53;100.00;57128.34;10438330;28;20052;-81
2023/04/13 11:28:56;;;;;;;2.25;0.60;;;;;;;-147.53;100.00;57128.34;10434887;28;20055;-81
2023/04/13 11:33:58;;;;;;;0.77;0.40;;;;;;;-147.53;100.00;57128.34;10412908;28;20056;-81
2023/04/13 11:39:05;;;;;;;5.82;0.63;;;;;;;-147.53;100.00;57128.34;10436108;28;20045;-79
2023/04/13 11:44:11;;;;;;;0.75;0.70;;;;;;;-147.53;100.00;57128.34;10384399;28;20084;-77
2023/04/13 11:49:12;;;;;;;3.08;0.68;;;;;;;-147.53;100.00;57128.34;10425039;28;20517;-79
2023/04/13 11:54:15;;;;;;;0.60;0.60;;;;;;;-147.53;100.00;57128.34;10433228;28;20524;-79
2023/04/13 11:59:22;;;;;;;1.85;0.68;;;;;;;-147.53;100.00;57128.34;10438365;28;20041;-78
2023/04/13 12:04:24;;;;;;;0.45;0.45;;;;;;;-147.53;100.00;57128.34;10389071;28;20049;-80
2023/04/13 12:09:26;;;;;;;0.45;0.38;;;;;;;-147.53;100.00;57128.34;10382285;28;20052;-80
2023/04/13 12:15:00;;;;;;;0.40;0.40;;;;;;;-147.53;100.00;57128.34;10387681;28;20041;-80
2023/04/13 12:20:14;;;;;;;0.60;0.50;;;;;;;-147.53;100.00;57128.34;10429135;28;20041;-80
2023/04/13 12:25:21;;;;;;;0.30;0.30;;;;;;;-147.53;100.00;57128.34;10409707;28;20051;-81
2023/04/13 12:30:26;;;;;;;5.38;0.30;;;;;;;-147.53;100.00;57128.34;10402212;28;20045;-82
2023/04/13 12:35:27;;;;;;;0.85;0.55;;;;;;;-147.53;100.00;57128.34;10404914;28;20041;-82
2023/04/13 12:40:29;;;;;;;0.32;0.25;;;;;;;-147.53;100.00;57128.34;10438237;28;20235;-80
2023/04/13 12:45:31;;;;;;;0.88;0.40;;;;;;;-147.53;100.00;57128.34;10419943;28;20175;-82
2023/04/13 12:50:32;;;;;;;2.50;0.75;;;;;;;-147.53;100.00;57128.34;10441912;28;20041;-81
2023/04/13 12:55:34;;;;;;;1.95;1.10;;;;;;;-147.53;100.00;57128.34;10401888;28;20033;-81
2023/04/13 13:00:35;;;;;;;4.53;0.63;;;;;;;-147.53;100.00;57128.34;10434734;28;20049;-82
2023/04/13 13:05:37;;;;;;;3.13;1.13;;;;;;;-147.53;100.00;57128.34;10416204;28;20040;-79
2023/04/13 13:10:40;;;;;;;0.63;0.50;;;;;;;-147.53;100.00;57128.34;10388661;28;20045;-81
2023/04/13 13:15:41;;;;;;;4.20;0.57;;;;;;;-147.53;100.00;57128.34;10394664;28;20493;-80
2023/04/13 13:20:44;;;;;;;3.53;1.20;;;;;;;-147.53;100.00;57128.34;10387485;28;20048;-81
2023/04/13 13:25:45;;;;;;;0.85;0.57;;;;;;;-147.53;100.00;57128.34;10420345;28;20037;-80
2023/04/13 13:31:07;;;;;;;5.82;0.68;;;;;;;-147.53;100.00;57128.34;10403944;28;20056;-81
2023/04/13 13:36:10;;;;;;;2.22;0.90;;;;;;;-147.53;100.00;57128.34;10417568;28;20033;-82
2023/04/13 13:41:11;;;;;;;1.33;0.60;;;;;;;-147.53;100.00;57128.34;10438731;28;20048;-80
2023/04/13 13:46:13;;;;;;;3.17;0.55;;;;;;;-147.53;100.00;57128.34;10399117;28;20501;-80
2023/04/13 13:51:15;;;;;;;0.63;0.45;;;;;;;-147.53;100.00;57128.34;10382192;28;20050;-82
2023/04/13 13:56:17;;;;;;;1.02;0.57;;;;;;;-147.53;100.00;57128.34;10412187;28;20048;-79
2023/04/13 14:01:19;;;;;;;7.35;0.75;;;;;;;-147.53;100.00;57128.34;10394270;28;20041;-82
2023/04/13 14:06:21;;;;;;;4.40;0.57;;;;;;;-147.53;100.00;57128.34;10404351;28;20029;-79
2023/04/13 14:11:23;;;;;;;1.27;0.40;;;;;;;-147.53;100.00;57128.34;10369597;28;20045;-80
2023/04/13 14:16:25;;;;;;;5.15;0.82;;;;;;;-147.53;100.00;57128.34;10397638;28;20044;-81
2023/04/13 14:21:26;;;;;;;2.85;0.60;;;;;;;-147.53;100.00;57128.34;10424583;28;20036;-79
2023/04/13 14:26:28;;;;;;;4.68;0.70;;;;;;;-147.53;100.00;57128.34;10402788;28;20695;-79
2023/04/13 14:31:30;;;;;;;6.32;1.00;;;;;;;-147.53;100.00;57128.34;10410986;28;20053;-79
2023/04/13 14:36:31;;;;;;;0.45;0.38;;;;;;;-147.53;100.00;57128.34;10408954;28;20045;-79
2023/04/13 14:41:33;;;;;;;0.30;0.30;;;;;;;-147.53;100.00;57128.34;10408425;28;20414;-78
2023/04/13 14:46:34;;;;;;;3.90;0.63;;;;;;;-147.53;100.00;57128.34;10377095;28;20819;-78
2023/04/13 14:51:36;;;;;;;6.43;0.93;;;;;;;-147.53;100.00;57128.34;10399716;28;20056;-80
2023/04/13 14:56:37;;;;;;;2.58;0.50;;;;;;;-147.53;100.00;57128.34;10414869;28;20029;-79
2023/04/13 15:01:39;;;;;;;1.00;0.52;;;;;;;-147.53;100.00;57128.34;10378491;28;20113;-79
2023/04/13 15:06:41;;;;;;;1.10;0.50;;;;;;;-147.53;100.00;57128.34;10414071;28;20516;-79
2023/04/13 15:11:43;;;;;;;0.82;0.50;;;;;;;-147.53;100.00;57128.34;10390370;28;20045;-79
2023/04/13 15:16:45;;;;;;;2.03;0.40;;;;;;;-147.53;100.00;57128.34;10376985;28;20466;-81
2023/04/13 15:21:46;;;;;;;1.55;0.47;;;;;;;-147.53;100.00;57128.34;10401810;28;20040;-80
2023/04/13 15:26:48;;;;;;;0.98;0.40;;;;;;;-147.53;100.00;57128.34;10403137;28;20057;-79
2023/04/13 15:31:50;;;;;;;0.32;0.30;;;;;;;-147.53;100.00;57128.34;10390487;28;20041;-79
2023/04/13 15:36:52;;;;;;;2.60;0.75;;;;;;;-147.53;100.00;57128.34;10413252;28;20486;-79
2023/04/13 15:41:54;;;;;;;1.25;0.60;;;;;;;-147.53;100.00;57128.34;10408583;28;20045;-77
2023/04/13 15:46:55;;;;;;;5.80;0.93;;;;;;;-147.53;100.00;57128.34;10421652;28;20547;-77
2023/04/13 15:51:57;;;;;;;1.08;0.40;;;;;;;-147.53;100.00;57128.34;10381763;28;20057;-77
2023/04/13 15:56:58;;;;;;;1.30;0.50;;;;;;;-147.53;100.00;57128.34;10415886;28;20044;-78
2023/04/13 16:02:00;;;;;;;5.63;0.38;;;;;;;-147.53;100.00;57128.34;10429160;28;20040;-78
2023/04/13 16:07:02;;;;;;;2.97;0.60;;;;;;;-147.53;100.00;57128.34;10400229;28;20132;-78
2023/04/13 16:12:16;;;;;;;1.85;0.30;;;;;;;-147.53;100.00;57128.34;10411088;28;20429;-78
2023/04/13 16:17:18;;;;;;;5.28;0.90;;;;;;;-147.53;100.00;57128.34;10407395;28;20041;-78
2023/04/13 16:22:21;;;;;;;0.60;0.40;;;;;;;-147.53;100.00;57128.34;10414523;28;20493;-77
2023/04/13 16:27:22;;;;;;;1.30;0.35;;;;;;;-147.53;100.00;57128.34;10394393;28;20044;-79
2023/04/13 16:32:24;;;;;;;1.88;0.50;;;;;;;-147.53;100.00;57128.34;10422559;28;20467;-78
2023/04/13 16:37:26;;;;;;;13.18;5.38;;;;;;;-147.53;100.00;57128.34;10391248;28;20038;-77
2023/04/13 16:42:27;;;;;;;9.82;2.33;;;;;;;-147.53;100.00;57128.34;10397545;28;20509;-77
2023/04/13 16:47:31;;;;;;;1.88;0.60;;;;;;;-147.53;100.00;57128.34;10388549;28;20042;-77
2023/04/13 16:52:33;;;;;;;4.03;0.77;;;;;;;-147.53;100.00;57128.34;10404986;28;20236;-77
2023/04/13 16:57:34;;;;;;;2.65;0.80;;;;;;;-147.53;100.00;57128.34;10387437;28;20795;-77
2023/04/13 17:02:40;;;;;;;8.85;1.55;;;;;;;-147.53;100.00;57128.34;10378385;28;20288;-78
2023/04/13 17:07:45;;;;;;;1.25;0.60;;;;;;;-147.53;100.00;57128.34;10412463;28;20041;-81
2023/04/13 17:12:47;;;;;;;2.00;0.77;;;;;;;-147.53;100.00;57128.34;10414265;28;20370;-77
2023/04/13 17:17:48;;;;;;;10.70;3.15;;;;;;;-147.53;100.00;57128.34;10395826;28;20047;-78
2023/04/13 17:22:50;;;;;;;4.75;1.83;;;;;;;-147.53;100.00;57128.34;10420760;28;20145;-79
2023/04/13 17:27:52;;;;;;;2.78;0.60;;;;;;;-147.53;100.00;57128.34;10411787;28;20413;-77
2023/04/13 17:32:54;;;;;;;2.38;1.13;;;;;;;-147.53;100.00;57128.34;10401876;28;20453;-78
2023/04/13 17:37:55;;;;;;;3.58;0.85;;;;;;;-147.53;100.00;57128.34;10411175;28;20049;-78
2023/04/13 17:42:57;;;;;;;6.85;2.65;;;;;;;-147.53;100.00;57128.34;10415359;28;20067;-78
2023/04/13 17:47:58;;;;;;;7.03;1.15;;;;;;;-147.53;100.00;57128.34;10434787;28;20040;-77
2023/04/13 17:53:02;;;;;;;3.10;0.65;;;;;;;-147.53;100.00;57128.34;10424532;28;20154;-76
2023/04/13 17:58:04;;;;;;;3.00;0.63;;;;;;;-147.53;100.00;57128.34;10445181;28;20404;-76
2023/04/13 18:03:07;;;;;;;3.65;0.68;;;;;;;-147.53;100.00;57128.34;10456373;28;20037;-76
2023/04/13 18:08:10;;;;;;;5.10;0.68;;;;;;;-147.53;100.00;57128.34;10454922;28;20093;-75
2023/04/13 18:13:11;;;;;;;0.68;0.32;;;;;;;-147.53;100.00;57128.34;10473870;28;20037;-76
2023/04/13 18:18:13;;;;;;;1.77;0.68;;;;;;;-147.53;100.00;57128.34;10447546;28;20037;-76
2023/04/13 18:23:15;;;;;;;2.58;0.60;;;;;;;-147.53;100.00;57128.34;10461531;28;20513;-75
2023/04/13 18:28:16;;;;;;;3.70;0.70;;;;;;;-147.53;100.00;57128.34;10458808;28;20075;-76
2023/04/13 18:33:18;;;;;;;2.33;0.73;;;;;;;-147.53;100.00;57128.34;10446004;28;20040;-75
2023/04/13 18:38:20;;;;;;;2.35;0.90;;;;;;;-147.53;100.00;57128.34;10482246;28;20102;-76
2023/04/13 18:43:21;;;;;;;4.18;0.65;;;;;;;-147.53;100.00;57128.34;10458592;28;20086;-76
2023/04/13 18:48:23;;;;;;;1.05;0.80;;;;;;;-147.53;100.00;57128.34;10456626;28;20067;-76
2023/04/13 18:53:25;;;;;;;1.02;0.70;;;;;;;-147.53;100.00;57128.34;10452420;28;20044;-75
2023/04/13 18:58:26;;;;;;;2.20;0.50;;;;;;;-147.53;100.00;57128.34;10461528;28;20052;-75
2023/04/13 19:03:28;;;;;;;1.02;0.50;;;;;;;-147.53;100.00;57128.34;10447767;28;20041;-75
2023/04/13 19:08:29;;;;;;;7.10;0.90;;;;;;;-147.53;100.00;57128.34;10441501;28;20041;-75
2023/04/13 19:13:31;;;;;;;2.38;0.80;;;;;;;-147.53;100.00;57128.34;10451461;28;20045;-77
2023/04/13 19:18:33;;;;;;;2.50;0.82;;;;;;;-147.53;100.00;57128.34;10447357;28;20037;-77
2023/04/13 19:23:35;;;;;;;2.28;1.25;;;;;;;-147.53;100.00;57128.34;10446650;28;20340;-76
2023/04/13 19:28:40;;;;;;;4.43;1.25;;;;;;;-147.53;100.00;57128.34;10469199;28;20041;-74
2023/04/13 19:33:44;;;;;;;2.25;1.13;;;;;;;-147.53;100.00;57128.34;10457879;28;20045;-75
2023/04/13 19:38:46;;;;;;;1.73;0.80;;;;;;;-147.53;100.00;57128.34;10460157;28;20079;-75
2023/04/13 19:43:49;;;;;;;3.67;0.90;;;;;;;-147.53;100.00;57128.34;10454475;28;20047;-76
2023/04/13 19:48:51;;;;;;;3.78;1.67;;;;;;;-147.53;100.00;57128.34;10463431;28;20572;-75
2023/04/13 19:53:54;;;;;;;;;;;;;;;-147.53;100.00;57128.34;10454592;28;20048;-75
2023/04/13 19:58:59;;;;;;;1.40;0.70;;;;;;;-147.53;100.00;57128.34;10462628;28;20384;-75
2023/04/13 20:04:02;;;;;;;3.83;1.00;;;;;;;-147.53;100.00;57128.34;10447639;28;20045;-76
2023/04/13 20:09:09;;;;;;;1.95;1.08;;;;;;;-147.53;100.00;57128.34;10458381;28;20044;-75
2023/04/13 20:14:11;;;;;;;3.13;0.85;;;;;;;-147.53;100.00;57128.34;10459921;28;20649;-75
2023/04/13 20:19:12;;;;;;;1.50;0.60;;;;;;;-147.53;100.00;57128.34;10457954;28;20414;-75
2023/04/13 20:24:14;;;;;;;2.97;1.15;;;;;;;-147.53;100.00;57128.34;10465788;28;20122;-75
2023/04/13 20:29:20;;;;;;;1.55;0.68;;;;;;;-147.53;100.00;57128.34;10450085;28;20032;-77
2023/04/13 20:34:23;;;;;;;0.30;0.30;;;;;;;-147.53;100.00;57128.34;10445365;28;20048;-77
2023/04/13 20:39:28;;;;;;;0.93;0.75;;;;;;;-147.53;100.00;57128.34;10443468;28;20404;-76
2023/04/13 20:44:31;;;;;;;5.78;1.77;;;;;;;-147.53;100.00;57128.34;10451102;28;20044;-76
2023/04/13 20:49:33;;;;;;;1.33;1.10;;;;;;;-147.53;100.00;57128.34;10456511;28;20519;-76
2023/04/13 20:54:35;;;;;;;1.92;0.63;;;;;;;-147.53;100.00;57128.34;10469721;28;20095;-76
2023/04/13 20:59:36;;;;;;;1.75;1.15;;;;;;;-147.53;100.00;57128.34;10447942;28;20041;-75
2023/04/13 21:04:39;;;;;;;2.90;1.08;;;;;;;-147.53;100.00;57128.34;10463512;28;20042;-75
2023/04/13 21:09:41;;;;;;;1.55;1.00;;;;;;;-147.53;100.00;57128.34;10453240;28;20041;-75
2023/04/13 21:14:42;;;;;;;5.32;1.73;;;;;;;-147.53;100.00;57128.34;10452966;28;20044;-75
2023/04/13 21:19:44;;;;;;;8.23;2.40;;;;;;;-147.53;100.00;57128.34;10461904;28;20041;-75
2023/04/13 21:24:46;;;;;;;6.30;2.25;;;;;;;-147.53;100.00;57128.34;10461740;28;20555;-76
2023/04/13 21:29:47;;;;;;;6.43;1.98;;;;;;;-147.53;100.00;57128.34;10420433;28;20382;-75
2023/04/13 21:34:49;;;;;;;5.05;2.00;;;;;;;-147.53;100.00;57128.34;10472007;28;20045;-75
2023/04/13 21:39:50;;;;;;;2.58;1.48;;;;;;;-147.53;100.00;57128.34;10468828;28;20045;-76
2023/04/13 21:44:54;;;;;;;5.57;1.77;;;;;;;-147.53;100.00;57128.34;10468631;28;20558;-76
2023/04/13 21:49:55;;;;;;;3.47;1.30;;;;;;;-147.53;100.00;57128.34;10452546;28;20049;-77
2023/04/13 21:54:58;;;;;;;1.88;0.85;;;;;;;-147.53;100.00;57128.34;10454895;28;20052;-76
2023/04/13 22:00:00;;;;;;;2.45;1.20;;;;;;;-147.53;100.00;57128.34;10468539;28;20098;-75
2023/04/13 22:05:02;;;;;;;2.83;1.50;;;;;;;-147.53;100.00;57128.34;10472062;28;20041;-78
2023/04/13 22:10:06;;;;;;;2.13;1.08;;;;;;;-147.53;100.00;57128.34;10475241;28;20118;-76
2023/04/13 22:15:08;;;;;;;1.90;1.27;;;;;;;-147.53;100.00;57128.34;10452850;28;20439;-76
2023/04/13 22:20:10;;;;;;;1.38;0.57;;;;;;;-147.53;100.00;57128.34;10465223;28;20060;-76
2023/04/13 22:25:12;;;;;;;1.80;1.00;;;;;;;-147.53;100.00;57128.34;10475534;28;20060;-76
2023/04/13 22:30:13;;;;;;;0.88;0.70;;;;;;;-147.53;100.00;57128.34;10461827;28;20036;-76
2023/04/13 22:35:15;;;;;;;1.73;0.80;;;;;;;-147.53;100.00;57128.34;10463408;28;20055;-77
2023/04/13 22:40:17;;;;;;;1.85;1.10;;;;;;;-147.53;100.00;57128.34;10464378;28;20142;-76
2023/04/13 22:45:19;;;;;;;1.20;0.70;;;;;;;-147.53;100.00;57128.34;10471258;28;20036;-77